sensor_id;sensor_type;location;lat;lon;timestamp;temperature;humidity
66102;HTU21D;52883;51.094;5.880;2023-04-24T00:00:13;9.15;118.99
66102;HTU21D;52883;51.094;5.880;2023-04-24T00:02:42;9.11;118.99
66102;HTU21D;52883;51.094;5.880;2023-04-24T00:05:10;9.07;118.99
66102;HTU21D;52883;51.094;5.880;2023-04-24T00:07:35;9.05;118.99
66102;HTU21D;52883;51.094;5.880;2023-04-24T00:10:01;9.02;118.99
66102;HTU21D;52883;51.094;5.880;2023-04-24T00:12:27;9.04;118.99
66102;HTU21D;52883;51.094;5.880;2023-04-24T00:14:53;9.05;118.99
66102;HTU21D;52883;51.094;5.880;2023-04-24T00:17:19;9.04;118.99
66102;HTU21D;52883;51.094;5.880;2023-04-24T00:19:48;9.06;118.99
66102;HTU21D;52883;51.094;5.880;2023-04-24T00:22:15;9.03;118.99
66102;HTU21D;52883;51.094;5.880;2023-04-24T00:24:41;9.04;118.99
66102;HTU21D;52883;51.094;5.880;2023-04-24T00:27:06;9.02;118.99
66102;HTU21D;52883;51.094;5.880;2023-04-24T00:29:32;9.04;118.99
66102;HTU21D;52883;51.094;5.880;2023-04-24T00:31:58;9.03;118.99
66102;HTU21D;52883;51.094;5.880;2023-04-24T00:34:23;9.02;118.99
66102;HTU21D;52883;51.094;5.880;2023-04-24T00:36:49;9.02;118.99
66102;HTU21D;52883;51.094;5.880;2023-04-24T00:39:21;9.01;118.99
66102;HTU21D;52883;51.094;5.880;2023-04-24T00:41:47;9.01;118.99
66102;HTU21D;52883;51.094;5.880;2023-04-24T00:44:14;9.02;118.99
66102;HTU21D;52883;51.094;5.880;2023-04-24T00:46:40;9.00;118.99
66102;HTU21D;52883;51.094;5.880;2023-04-24T00:49:06;8.97;118.99
66102;HTU21D;52883;51.094;5.880;2023-04-24T00:51:32;9.01;118.99
66102;HTU21D;52883;51.094;5.880;2023-04-24T00:54:01;8.97;118.99
66102;HTU21D;52883;51.094;5.880;2023-04-24T00:56:28;8.97;118.99
66102;HTU21D;52883;51.094;5.880;2023-04-24T00:58:55;9.04;118.99
66102;HTU21D;52883;51.094;5.880;2023-04-24T01:01:21;9.02;118.99
66102;HTU21D;52883;51.094;5.880;2023-04-24T01:03:49;9.03;118.99
66102;HTU21D;52883;51.094;5.880;2023-04-24T01:06:18;9.01;118.99
66102;HTU21D;52883;51.094;5.880;2023-04-24T01:08:46;9.03;118.99
66102;HTU21D;52883;51.094;5.880;2023-04-24T01:11:13;9.03;118.99
66102;HTU21D;52883;51.094;5.880;2023-04-24T01:13:40;9.04;118.99
66102;HTU21D;52883;51.094;5.880;2023-04-24T01:16:05;9.04;118.99
66102;HTU21D;52883;51.094;5.880;2023-04-24T01:18:33;9.04;118.99
66102;HTU21D;52883;51.094;5.880;2023-04-24T01:21:04;9.04;118.99
66102;HTU21D;52883;51.094;5.880;2023-04-24T01:23:30;9.06;118.99
66102;HTU21D;52883;51.094;5.880;2023-04-24T01:25:55;9.07;118.99
66102;HTU21D;52883;51.094;5.880;2023-04-24T01:28:21;9.05;118.99
66102;HTU21D;52883;51.094;5.880;2023-04-24T01:30:47;9.04;118.99
66102;HTU21D;52883;51.094;5.880;2023-04-24T01:33:13;9.05;118.99
66102;HTU21D;52883;51.094;5.880;2023-04-24T01:35:39;9.04;118.99
66102;HTU21D;52883;51.094;5.880;2023-04-24T01:38:05;9.05;118.99
66102;HTU21D;52883;51.094;5.880;2023-04-24T01:40:31;9.07;118.99
66102;HTU21D;52883;51.094;5.880;2023-04-24T01:42:58;9.07;118.99
66102;HTU21D;52883;51.094;5.880;2023-04-24T01:45:24;9.06;118.99
66102;HTU21D;52883;51.094;5.880;2023-04-24T01:47:50;9.08;118.99
66102;HTU21D;52883;51.094;5.880;2023-04-24T01:50:17;9.08;118.99
66102;HTU21D;52883;51.094;5.880;2023-04-24T01:52:44;9.08;118.99
66102;HTU21D;52883;51.094;5.880;2023-04-24T01:55:10;9.08;118.99
66102;HTU21D;52883;51.094;5.880;2023-04-24T01:57:36;9.10;118.99
66102;HTU21D;52883;51.094;5.880;2023-04-24T02:00:06;9.08;118.99
66102;HTU21D;52883;51.094;5.880;2023-04-24T02:02:41;9.10;118.99
66102;HTU21D;52883;51.094;5.880;2023-04-24T02:05:08;9.11;118.99
66102;HTU21D;52883;51.094;5.880;2023-04-24T02:07:35;9.14;118.99
66102;HTU21D;52883;51.094;5.880;2023-04-24T02:10:02;9.10;118.99
66102;HTU21D;52883;51.094;5.880;2023-04-24T02:12:29;9.10;118.99
66102;HTU21D;52883;51.094;5.880;2023-04-24T02:14:55;9.11;118.99
66102;HTU21D;52883;51.094;5.880;2023-04-24T02:17:20;9.11;118.99
66102;HTU21D;52883;51.094;5.880;2023-04-24T02:19:46;9.10;118.99
66102;HTU21D;52883;51.094;5.880;2023-04-24T02:22:12;9.11;118.99
66102;HTU21D;52883;51.094;5.880;2023-04-24T02:24:38;9.11;118.99
66102;HTU21D;52883;51.094;5.880;2023-04-24T02:27:03;9.09;118.99
66102;HTU21D;52883;51.094;5.880;2023-04-24T02:29:29;9.10;118.99
66102;HTU21D;52883;51.094;5.880;2023-04-24T02:31:55;9.11;118.99
66102;HTU21D;52883;51.094;5.880;2023-04-24T02:34:21;9.12;118.99
66102;HTU21D;52883;51.094;5.880;2023-04-24T02:36:46;9.08;118.99
66102;HTU21D;52883;51.094;5.880;2023-04-24T02:39:14;9.10;118.99
66102;HTU21D;52883;51.094;5.880;2023-04-24T02:41:44;9.09;118.99
66102;HTU21D;52883;51.094;5.880;2023-04-24T02:44:10;9.09;118.99
66102;HTU21D;52883;51.094;5.880;2023-04-24T02:46:36;9.10;118.99
66102;HTU21D;52883;51.094;5.880;2023-04-24T02:49:02;9.09;118.99
66102;HTU21D;52883;51.094;5.880;2023-04-24T02:51:28;9.12;118.99
66102;HTU21D;52883;51.094;5.880;2023-04-24T02:53:54;9.06;118.99
66102;HTU21D;52883;51.094;5.880;2023-04-24T02:56:21;9.00;118.99
66102;HTU21D;52883;51.094;5.880;2023-04-24T02:58:46;8.95;118.99
66102;HTU21D;52883;51.094;5.880;2023-04-24T03:01:12;8.95;118.99
66102;HTU21D;52883;51.094;5.880;2023-04-24T03:03:38;8.93;118.99
66102;HTU21D;52883;51.094;5.880;2023-04-24T03:06:04;8.90;118.99
66102;HTU21D;52883;51.094;5.880;2023-04-24T03:08:31;8.85;118.99
66102;HTU21D;52883;51.094;5.880;2023-04-24T03:10:57;8.83;118.99
66102;HTU21D;52883;51.094;5.880;2023-04-24T03:13:23;8.80;118.99
66102;HTU21D;52883;51.094;5.880;2023-04-24T03:15:50;8.79;118.99
66102;HTU21D;52883;51.094;5.880;2023-04-24T03:18:15;8.79;118.99
66102;HTU21D;52883;51.094;5.880;2023-04-24T03:20:42;8.83;118.99
66102;HTU21D;52883;51.094;5.880;2023-04-24T03:23:08;8.87;118.99
66102;HTU21D;52883;51.094;5.880;2023-04-24T03:25:34;8.87;118.99
66102;HTU21D;52883;51.094;5.880;2023-04-24T03:28:00;8.87;118.99
66102;HTU21D;52883;51.094;5.880;2023-04-24T03:30:58;8.90;118.99
66102;HTU21D;52883;51.094;5.880;2023-04-24T03:33:27;8.88;118.99
66102;HTU21D;52883;51.094;5.880;2023-04-24T03:35:59;8.90;118.99
66102;HTU21D;52883;51.094;5.880;2023-04-24T03:38:25;8.89;118.99
66102;HTU21D;52883;51.094;5.880;2023-04-24T03:41:15;8.88;118.99
66102;HTU21D;52883;51.094;5.880;2023-04-24T03:43:48;8.89;118.99
66102;HTU21D;52883;51.094;5.880;2023-04-24T03:46:14;8.87;118.99
66102;HTU21D;52883;51.094;5.880;2023-04-24T03:48:44;8.85;118.99
66102;HTU21D;52883;51.094;5.880;2023-04-24T03:51:10;8.82;118.99
66102;HTU21D;52883;51.094;5.880;2023-04-24T03:53:38;8.78;118.99
66102;HTU21D;52883;51.094;5.880;2023-04-24T03:56:04;8.70;118.99
66102;HTU21D;52883;51.094;5.880;2023-04-24T03:58:31;8.65;118.99
66102;HTU21D;52883;51.094;5.880;2023-04-24T04:00:56;8.60;118.99
66102;HTU21D;52883;51.094;5.880;2023-04-24T04:03:44;8.57;118.99
66102;HTU21D;52883;51.094;5.880;2023-04-24T04:06:10;8.49;118.99
66102;HTU21D;52883;51.094;5.880;2023-04-24T04:08:37;8.46;118.99
66102;HTU21D;52883;51.094;5.880;2023-04-24T04:11:02;8.43;118.99
66102;HTU21D;52883;51.094;5.880;2023-04-24T04:13:28;8.39;118.99
66102;HTU21D;52883;51.094;5.880;2023-04-24T04:15:54;8.41;118.99
66102;HTU21D;52883;51.094;5.880;2023-04-24T04:18:20;8.37;118.99
66102;HTU21D;52883;51.094;5.880;2023-04-24T04:20:45;8.33;118.99
66102;HTU21D;52883;51.094;5.880;2023-04-24T04:23:13;8.32;118.99
66102;HTU21D;52883;51.094;5.880;2023-04-24T04:25:49;8.26;118.99
66102;HTU21D;52883;51.094;5.880;2023-04-24T04:28:21;8.22;118.99
66102;HTU21D;52883;51.094;5.880;2023-04-24T04:30:47;8.23;118.99
66102;HTU21D;52883;51.094;5.880;2023-04-24T04:33:13;8.23;118.99
66102;HTU21D;52883;51.094;5.880;2023-04-24T04:35:40;8.22;118.99
66102;HTU21D;52883;51.094;5.880;2023-04-24T04:38:06;8.29;118.99
66102;HTU21D;52883;51.094;5.880;2023-04-24T04:40:47;8.26;118.99
66102;HTU21D;52883;51.094;5.880;2023-04-24T04:43:14;8.26;118.99
66102;HTU21D;52883;51.094;5.880;2023-04-24T04:45:47;8.26;118.99
66102;HTU21D;52883;51.094;5.880;2023-04-24T04:48:26;8.27;118.99
66102;HTU21D;52883;51.094;5.880;2023-04-24T04:50:53;8.27;118.99
66102;HTU21D;52883;51.094;5.880;2023-04-24T04:53:21;8.30;118.99
66102;HTU21D;52883;51.094;5.880;2023-04-24T04:55:47;8.43;118.99
66102;HTU21D;52883;51.094;5.880;2023-04-24T04:58:17;8.55;118.99
66102;HTU21D;52883;51.094;5.880;2023-04-24T05:00:44;8.63;118.99
66102;HTU21D;52883;51.094;5.880;2023-04-24T05:03:16;8.68;118.99
66102;HTU21D;52883;51.094;5.880;2023-04-24T05:05:42;8.63;118.99
66102;HTU21D;52883;51.094;5.880;2023-04-24T05:08:11;8.53;118.99
66102;HTU21D;52883;51.094;5.880;2023-04-24T05:10:36;8.46;118.99
66102;HTU21D;52883;51.094;5.880;2023-04-24T05:13:03;8.43;118.99
66102;HTU21D;52883;51.094;5.880;2023-04-24T05:15:30;8.43;118.99
66102;HTU21D;52883;51.094;5.880;2023-04-24T05:17:58;8.34;118.99
66102;HTU21D;52883;51.094;5.880;2023-04-24T05:20:24;8.30;118.99
66102;HTU21D;52883;51.094;5.880;2023-04-24T05:22:50;8.30;118.99
66102;HTU21D;52883;51.094;5.880;2023-04-24T05:25:17;8.24;118.99
66102;HTU21D;52883;51.094;5.880;2023-04-24T05:27:49;8.22;118.99
66102;HTU21D;52883;51.094;5.880;2023-04-24T05:30:16;8.24;118.99
66102;HTU21D;52883;51.094;5.880;2023-04-24T05:32:42;8.24;118.99
66102;HTU21D;52883;51.094;5.880;2023-04-24T05:35:08;8.24;118.99
66102;HTU21D;52883;51.094;5.880;2023-04-24T05:37:35;8.23;118.99
66102;HTU21D;52883;51.094;5.880;2023-04-24T05:40:00;8.27;118.99
66102;HTU21D;52883;51.094;5.880;2023-04-24T05:42:26;8.30;118.99
66102;HTU21D;52883;51.094;5.880;2023-04-24T05:44:51;8.31;118.99
66102;HTU21D;52883;51.094;5.880;2023-04-24T05:47:19;8.38;118.99
66102;HTU21D;52883;51.094;5.880;2023-04-24T05:49:47;8.45;118.99
66102;HTU21D;52883;51.094;5.880;2023-04-24T05:52:12;8.49;118.99
66102;HTU21D;52883;51.094;5.880;2023-04-24T05:54:39;8.48;118.99
66102;HTU21D;52883;51.094;5.880;2023-04-24T05:57:05;8.51;118.99
66102;HTU21D;52883;51.094;5.880;2023-04-24T05:59:47;8.53;118.99
66102;HTU21D;52883;51.094;5.880;2023-04-24T06:02:13;8.49;118.99
66102;HTU21D;52883;51.094;5.880;2023-04-24T06:04:38;8.45;118.99
66102;HTU21D;52883;51.094;5.880;2023-04-24T06:07:04;8.41;118.99
66102;HTU21D;52883;51.094;5.880;2023-04-24T06:09:30;8.37;118.99
66102;HTU21D;52883;51.094;5.880;2023-04-24T06:11:56;8.33;118.99
66102;HTU21D;52883;51.094;5.880;2023-04-24T06:14:26;8.29;118.99
66102;HTU21D;52883;51.094;5.880;2023-04-24T06:17:24;8.24;118.99
66102;HTU21D;52883;51.094;5.880;2023-04-24T06:19:50;8.27;118.99
66102;HTU21D;52883;51.094;5.880;2023-04-24T06:22:16;8.23;118.99
66102;HTU21D;52883;51.094;5.880;2023-04-24T06:24:42;8.20;118.99
66102;HTU21D;52883;51.094;5.880;2023-04-24T06:27:07;8.20;118.99
66102;HTU21D;52883;51.094;5.880;2023-04-24T06:29:34;8.19;118.99
66102;HTU21D;52883;51.094;5.880;2023-04-24T06:31:59;8.17;118.99
66102;HTU21D;52883;51.094;5.880;2023-04-24T06:34:25;8.14;118.99
66102;HTU21D;52883;51.094;5.880;2023-04-24T06:36:50;8.14;118.99
66102;HTU21D;52883;51.094;5.880;2023-04-24T06:39:16;8.07;118.99
66102;HTU21D;52883;51.094;5.880;2023-04-24T06:41:42;8.01;118.99
66102;HTU21D;52883;51.094;5.880;2023-04-24T06:44:15;7.92;118.99
66102;HTU21D;52883;51.094;5.880;2023-04-24T06:46:42;7.82;118.99
66102;HTU21D;52883;51.094;5.880;2023-04-24T06:49:07;7.68;118.99
66102;HTU21D;52883;51.094;5.880;2023-04-24T06:51:33;7.56;118.99
66102;HTU21D;52883;51.094;5.880;2023-04-24T06:53:59;7.47;118.99
66102;HTU21D;52883;51.094;5.880;2023-04-24T06:56:25;7.39;118.99
66102;HTU21D;52883;51.094;5.880;2023-04-24T06:58:51;7.35;118.99
66102;HTU21D;52883;51.094;5.880;2023-04-24T07:01:17;7.31;118.99
66102;HTU21D;52883;51.094;5.880;2023-04-24T07:03:43;7.33;118.99
66102;HTU21D;52883;51.094;5.880;2023-04-24T07:06:09;7.40;118.99
66102;HTU21D;52883;51.094;5.880;2023-04-24T07:08:36;7.49;118.99
66102;HTU21D;52883;51.094;5.880;2023-04-24T07:11:02;7.56;118.99
66102;HTU21D;52883;51.094;5.880;2023-04-24T07:13:28;7.64;118.99
66102;HTU21D;52883;51.094;5.880;2023-04-24T07:15:54;7.68;118.99
66102;HTU21D;52883;51.094;5.880;2023-04-24T07:18:22;7.71;118.99
66102;HTU21D;52883;51.094;5.880;2023-04-24T07:20:48;7.72;118.99
66102;HTU21D;52883;51.094;5.880;2023-04-24T07:23:16;7.72;118.99
66102;HTU21D;52883;51.094;5.880;2023-04-24T07:25:41;7.63;118.99
66102;HTU21D;52883;51.094;5.880;2023-04-24T07:28:07;7.58;118.99
66102;HTU21D;52883;51.094;5.880;2023-04-24T07:30:33;7.58;118.99
66102;HTU21D;52883;51.094;5.880;2023-04-24T07:32:59;7.59;118.99
66102;HTU21D;52883;51.094;5.880;2023-04-24T07:35:26;7.59;118.99
66102;HTU21D;52883;51.094;5.880;2023-04-24T07:37:53;7.56;118.99
66102;HTU21D;52883;51.094;5.880;2023-04-24T07:40:18;7.54;118.99
66102;HTU21D;52883;51.094;5.880;2023-04-24T07:42:44;7.53;118.99
66102;HTU21D;52883;51.094;5.880;2023-04-24T07:45:09;7.49;118.99
66102;HTU21D;52883;51.094;5.880;2023-04-24T07:47:36;7.47;118.99
66102;HTU21D;52883;51.094;5.880;2023-04-24T07:50:03;7.48;118.99
66102;HTU21D;52883;51.094;5.880;2023-04-24T07:52:28;7.43;118.99
66102;HTU21D;52883;51.094;5.880;2023-04-24T07:54:54;7.39;118.99
66102;HTU21D;52883;51.094;5.880;2023-04-24T07:57:24;7.35;118.99
66102;HTU21D;52883;51.094;5.880;2023-04-24T07:59:50;7.34;118.99
66102;HTU21D;52883;51.094;5.880;2023-04-24T08:02:16;7.37;118.99
66102;HTU21D;52883;51.094;5.880;2023-04-24T08:04:41;7.44;118.99
66102;HTU21D;52883;51.094;5.880;2023-04-24T08:07:07;7.50;118.99
66102;HTU21D;52883;51.094;5.880;2023-04-24T08:09:33;7.55;118.99
66102;HTU21D;52883;51.094;5.880;2023-04-24T08:11:59;7.59;118.99
66102;HTU21D;52883;51.094;5.880;2023-04-24T08:14:25;7.63;118.99
66102;HTU21D;52883;51.094;5.880;2023-04-24T08:16:53;7.74;118.99
66102;HTU21D;52883;51.094;5.880;2023-04-24T08:19:19;7.79;118.99
66102;HTU21D;52883;51.094;5.880;2023-04-24T08:21:44;7.83;118.99
66102;HTU21D;52883;51.094;5.880;2023-04-24T08:24:10;7.96;118.99
66102;HTU21D;52883;51.094;5.880;2023-04-24T08:26:36;8.04;118.99
66102;HTU21D;52883;51.094;5.880;2023-04-24T08:29:01;8.09;118.99
66102;HTU21D;52883;51.094;5.880;2023-04-24T08:31:27;8.15;118.99
66102;HTU21D;52883;51.094;5.880;2023-04-24T08:33:52;8.19;118.99
66102;HTU21D;52883;51.094;5.880;2023-04-24T08:36:18;8.31;118.99
66102;HTU21D;52883;51.094;5.880;2023-04-24T08:38:43;8.42;118.99
66102;HTU21D;52883;51.094;5.880;2023-04-24T08:41:14;8.53;118.99
66102;HTU21D;52883;51.094;5.880;2023-04-24T08:43:40;8.62;118.99
66102;HTU21D;52883;51.094;5.880;2023-04-24T08:46:06;8.73;118.99
66102;HTU21D;52883;51.094;5.880;2023-04-24T08:48:32;8.80;118.99
66102;HTU21D;52883;51.094;5.880;2023-04-24T08:50:59;8.94;118.99
66102;HTU21D;52883;51.094;5.880;2023-04-24T08:53:25;9.06;118.99
66102;HTU21D;52883;51.094;5.880;2023-04-24T08:55:54;9.19;118.99
66102;HTU21D;52883;51.094;5.880;2023-04-24T08:58:20;9.21;118.99
66102;HTU21D;52883;51.094;5.880;2023-04-24T09:00:47;9.23;118.99
66102;HTU21D;52883;51.094;5.880;2023-04-24T09:03:17;9.26;118.99
66102;HTU21D;52883;51.094;5.880;2023-04-24T09:05:43;9.31;118.99
66102;HTU21D;52883;51.094;5.880;2023-04-24T09:08:13;9.41;118.99
66102;HTU21D;52883;51.094;5.880;2023-04-24T09:10:40;9.45;118.99
66102;HTU21D;52883;51.094;5.880;2023-04-24T09:13:06;9.40;118.99
66102;HTU21D;52883;51.094;5.880;2023-04-24T09:15:35;9.20;118.99
66102;HTU21D;52883;51.094;5.880;2023-04-24T09:18:01;9.02;118.99
66102;HTU21D;52883;51.094;5.880;2023-04-24T09:20:27;8.94;118.99
66102;HTU21D;52883;51.094;5.880;2023-04-24T09:22:54;8.94;118.99
66102;HTU21D;52883;51.094;5.880;2023-04-24T09:25:21;9.15;118.99
66102;HTU21D;52883;51.094;5.880;2023-04-24T09:27:47;9.46;118.99
66102;HTU21D;52883;51.094;5.880;2023-04-24T09:30:13;9.68;118.99
66102;HTU21D;52883;51.094;5.880;2023-04-24T09:32:39;9.84;118.99
66102;HTU21D;52883;51.094;5.880;2023-04-24T09:37:43;9.99;118.99
66102;HTU21D;52883;51.094;5.880;2023-04-24T09:42:35;9.96;118.99
66102;HTU21D;52883;51.094;5.880;2023-04-24T09:45:01;9.96;118.99
66102;HTU21D;52883;51.094;5.880;2023-04-24T09:47:27;9.96;118.99
66102;HTU21D;52883;51.094;5.880;2023-04-24T09:49:57;9.92;118.99
66102;HTU21D;52883;51.094;5.880;2023-04-24T09:52:23;10.07;118.99
66102;HTU21D;52883;51.094;5.880;2023-04-24T09:54:53;10.41;118.99
66102;HTU21D;52883;51.094;5.880;2023-04-24T09:57:19;10.68;118.99
66102;HTU21D;52883;51.094;5.880;2023-04-24T09:59:46;10.84;118.99
66102;HTU21D;52883;51.094;5.880;2023-04-24T10:02:19;10.90;118.99
66102;HTU21D;52883;51.094;5.880;2023-04-24T10:04:54;11.03;118.99
66102;HTU21D;52883;51.094;5.880;2023-04-24T10:07:27;11.34;118.99
66102;HTU21D;52883;51.094;5.880;2023-04-24T10:09:54;11.79;118.99
66102;HTU21D;52883;51.094;5.880;2023-04-24T10:12:21;12.15;118.99
66102;HTU21D;52883;51.094;5.880;2023-04-24T10:14:48;12.66;118.99
66102;HTU21D;52883;51.094;5.880;2023-04-24T10:17:14;13.21;118.99
66102;HTU21D;52883;51.094;5.880;2023-04-24T10:19:43;13.54;118.99
66102;HTU21D;52883;51.094;5.880;2023-04-24T10:22:09;13.80;118.99
66102;HTU21D;52883;51.094;5.880;2023-04-24T10:24:35;13.95;118.99
66102;HTU21D;52883;51.094;5.880;2023-04-24T10:27:03;14.12;118.99
66102;HTU21D;52883;51.094;5.880;2023-04-24T10:29:31;14.21;118.99
66102;HTU21D;52883;51.094;5.880;2023-04-24T10:31:57;14.00;118.99
66102;HTU21D;52883;51.094;5.880;2023-04-24T10:34:24;13.41;118.99
66102;HTU21D;52883;51.094;5.880;2023-04-24T10:36:55;12.89;118.99
66102;HTU21D;52883;51.094;5.880;2023-04-24T10:39:22;12.76;118.99
66102;HTU21D;52883;51.094;5.880;2023-04-24T10:41:49;12.89;118.99
66102;HTU21D;52883;51.094;5.880;2023-04-24T10:44:15;12.85;118.99
66102;HTU21D;52883;51.094;5.880;2023-04-24T10:46:46;12.92;118.99
66102;HTU21D;52883;51.094;5.880;2023-04-24T10:49:13;12.96;118.99
66102;HTU21D;52883;51.094;5.880;2023-04-24T10:51:50;13.31;118.99
66102;HTU21D;52883;51.094;5.880;2023-04-24T10:59:44;12.51;118.99
66102;HTU21D;52883;51.094;5.880;2023-04-24T11:02:09;12.10;118.99
66102;HTU21D;52883;51.094;5.880;2023-04-24T11:04:35;11.78;118.99
66102;HTU21D;52883;51.094;5.880;2023-04-24T11:07:04;11.66;118.99
66102;HTU21D;52883;51.094;5.880;2023-04-24T11:09:31;11.60;118.99
66102;HTU21D;52883;51.094;5.880;2023-04-24T11:12:08;11.66;118.99
66102;HTU21D;52883;51.094;5.880;2023-04-24T11:14:59;11.66;118.99
66102;HTU21D;52883;51.094;5.880;2023-04-24T11:17:36;11.62;118.99
66102;HTU21D;52883;51.094;5.880;2023-04-24T11:20:08;11.57;118.99
66102;HTU21D;52883;51.094;5.880;2023-04-24T11:22:37;11.55;118.99
66102;HTU21D;52883;51.094;5.880;2023-04-24T11:25:03;11.55;118.99
66102;HTU21D;52883;51.094;5.880;2023-04-24T11:27:38;11.60;118.99
66102;HTU21D;52883;51.094;5.880;2023-04-24T11:30:04;11.79;118.99
66102;HTU21D;52883;51.094;5.880;2023-04-24T11:35:19;12.11;118.99
66102;HTU21D;52883;51.094;5.880;2023-04-24T11:37:47;12.34;118.99
66102;HTU21D;52883;51.094;5.880;2023-04-24T11:40:15;12.62;118.99
66102;HTU21D;52883;51.094;5.880;2023-04-24T11:42:46;13.20;118.99
66102;HTU21D;52883;51.094;5.880;2023-04-24T11:45:15;13.47;118.99
66102;HTU21D;52883;51.094;5.880;2023-04-24T11:47:42;13.78;118.99
66102;HTU21D;52883;51.094;5.880;2023-04-24T11:50:15;14.28;118.99
66102;HTU21D;52883;51.094;5.880;2023-04-24T11:52:43;14.43;118.99
66102;HTU21D;52883;51.094;5.880;2023-04-24T11:57:45;14.29;118.99
66102;HTU21D;52883;51.094;5.880;2023-04-24T12:02:44;13.93;118.99
66102;HTU21D;52883;51.094;5.880;2023-04-24T12:05:30;13.53;118.99
66102;HTU21D;52883;51.094;5.880;2023-04-24T12:07:59;13.27;118.99
66102;HTU21D;52883;51.094;5.880;2023-04-24T12:10:28;12.96;118.99
66102;HTU21D;52883;51.094;5.880;2023-04-24T12:12:56;12.84;118.99
66102;HTU21D;52883;51.094;5.880;2023-04-24T12:15:22;13.10;118.99
66102;HTU21D;52883;51.094;5.880;2023-04-24T12:17:51;13.41;118.99
66102;HTU21D;52883;51.094;5.880;2023-04-24T12:20:17;13.46;118.99
66102;HTU21D;52883;51.094;5.880;2023-04-24T12:22:44;13.22;118.99
66102;HTU21D;52883;51.094;5.880;2023-04-24T12:25:11;13.16;118.99
66102;HTU21D;52883;51.094;5.880;2023-04-24T12:27:37;13.18;118.99
66102;HTU21D;52883;51.094;5.880;2023-04-24T12:30:10;13.52;118.99
66102;HTU21D;52883;51.094;5.880;2023-04-24T12:32:47;14.00;118.99
66102;HTU21D;52883;51.094;5.880;2023-04-24T12:35:20;14.29;118.99
66102;HTU21D;52883;51.094;5.880;2023-04-24T12:37:46;14.53;118.99
66102;HTU21D;52883;51.094;5.880;2023-04-24T12:40:12;14.54;118.99
66102;HTU21D;52883;51.094;5.880;2023-04-24T12:42:47;14.65;118.99
66102;HTU21D;52883;51.094;5.880;2023-04-24T12:45:14;14.49;118.99
66102;HTU21D;52883;51.094;5.880;2023-04-24T12:47:41;14.49;118.99
66102;HTU21D;52883;51.094;5.880;2023-04-24T12:50:09;14.51;118.99
66102;HTU21D;52883;51.094;5.880;2023-04-24T12:52:35;14.64;118.99
66102;HTU21D;52883;51.094;5.880;2023-04-24T12:55:00;14.70;118.99
66102;HTU21D;52883;51.094;5.880;2023-04-24T12:57:29;14.59;118.99
66102;HTU21D;52883;51.094;5.880;2023-04-24T12:59:56;14.60;118.99
66102;HTU21D;52883;51.094;5.880;2023-04-24T13:02:23;14.93;118.99
66102;HTU21D;52883;51.094;5.880;2023-04-24T13:04:49;15.01;118.99
66102;HTU21D;52883;51.094;5.880;2023-04-24T13:07:15;14.89;118.99
66102;HTU21D;52883;51.094;5.880;2023-04-24T13:09:42;14.53;118.99
66102;HTU21D;52883;51.094;5.880;2023-04-24T13:12:09;14.19;118.99
66102;HTU21D;52883;51.094;5.880;2023-04-24T13:14:35;13.91;118.99
66102;HTU21D;52883;51.094;5.880;2023-04-24T13:17:01;13.76;118.99
66102;HTU21D;52883;51.094;5.880;2023-04-24T13:19:27;13.95;118.99
66102;HTU21D;52883;51.094;5.880;2023-04-24T13:21:55;14.20;118.99
66102;HTU21D;52883;51.094;5.880;2023-04-24T13:24:22;14.40;118.99
66102;HTU21D;52883;51.094;5.880;2023-04-24T13:26:50;14.40;118.99
66102;HTU21D;52883;51.094;5.880;2023-04-24T13:29:16;14.45;118.99
66102;HTU21D;52883;51.094;5.880;2023-04-24T13:31:42;14.36;118.99
66102;HTU21D;52883;51.094;5.880;2023-04-24T13:34:07;14.43;118.99
66102;HTU21D;52883;51.094;5.880;2023-04-24T13:36:33;14.73;118.99
66102;HTU21D;52883;51.094;5.880;2023-04-24T13:38:59;15.07;118.99
66102;HTU21D;52883;51.094;5.880;2023-04-24T13:41:24;15.02;118.99
66102;HTU21D;52883;51.094;5.880;2023-04-24T13:43:50;15.01;118.99
66102;HTU21D;52883;51.094;5.880;2023-04-24T13:46:16;15.03;118.99
66102;HTU21D;52883;51.094;5.880;2023-04-24T13:48:41;15.23;118.99
66102;HTU21D;52883;51.094;5.880;2023-04-24T13:51:07;15.49;118.99
66102;HTU21D;52883;51.094;5.880;2023-04-24T13:53:33;15.61;118.99
66102;HTU21D;52883;51.094;5.880;2023-04-24T13:56:01;15.74;118.99
66102;HTU21D;52883;51.094;5.880;2023-04-24T13:58:27;15.83;118.99
66102;HTU21D;52883;51.094;5.880;2023-04-24T14:00:53;15.92;118.99
66102;HTU21D;52883;51.094;5.880;2023-04-24T14:03:18;15.96;118.99
66102;HTU21D;52883;51.094;5.880;2023-04-24T14:05:44;15.85;118.99
66102;HTU21D;52883;51.094;5.880;2023-04-24T14:08:09;15.93;118.99
66102;HTU21D;52883;51.094;5.880;2023-04-24T14:10:35;16.20;118.99
66102;HTU21D;52883;51.094;5.880;2023-04-24T14:13:01;16.71;118.99
66102;HTU21D;52883;51.094;5.880;2023-04-24T14:15:27;17.22;118.99
66102;HTU21D;52883;51.094;5.880;2023-04-24T14:17:53;17.40;118.99
66102;HTU21D;52883;51.094;5.880;2023-04-24T14:20:18;17.32;118.99
66102;HTU21D;52883;51.094;5.880;2023-04-24T14:22:44;16.91;118.99
66102;HTU21D;52883;51.094;5.880;2023-04-24T14:25:10;16.45;118.99
66102;HTU21D;52883;51.094;5.880;2023-04-24T14:27:35;16.33;118.99
66102;HTU21D;52883;51.094;5.880;2023-04-24T14:30:01;16.40;118.99
66102;HTU21D;52883;51.094;5.880;2023-04-24T14:32:27;16.56;118.99
66102;HTU21D;52883;51.094;5.880;2023-04-24T14:34:52;16.41;118.99
66102;HTU21D;52883;51.094;5.880;2023-04-24T14:37:18;16.14;118.99
66102;HTU21D;52883;51.094;5.880;2023-04-24T14:39:45;15.98;118.99
66102;HTU21D;52883;51.094;5.880;2023-04-24T14:42:10;15.84;118.99
66102;HTU21D;52883;51.094;5.880;2023-04-24T14:44:36;15.67;118.99
66102;HTU21D;52883;51.094;5.880;2023-04-24T14:47:01;15.41;118.99
66102;HTU21D;52883;51.094;5.880;2023-04-24T14:49:27;15.21;118.99
66102;HTU21D;52883;51.094;5.880;2023-04-24T14:51:53;15.15;118.99
66102;HTU21D;52883;51.094;5.880;2023-04-24T14:54:18;15.26;118.99
66102;HTU21D;52883;51.094;5.880;2023-04-24T14:56:45;15.54;118.99
66102;HTU21D;52883;51.094;5.880;2023-04-24T14:59:10;15.49;118.99
66102;HTU21D;52883;51.094;5.880;2023-04-24T15:01:36;15.30;112.23
66102;HTU21D;52883;51.094;5.880;2023-04-24T15:04:02;15.03;118.99
66102;HTU21D;52883;51.094;5.880;2023-04-24T15:06:27;14.82;118.99
66102;HTU21D;52883;51.094;5.880;2023-04-24T15:08:53;14.86;118.99
66102;HTU21D;52883;51.094;5.880;2023-04-24T15:11:18;14.96;118.99
66102;HTU21D;52883;51.094;5.880;2023-04-24T15:13:44;14.95;118.99
66102;HTU21D;52883;51.094;5.880;2023-04-24T15:16:12;14.99;118.99
66102;HTU21D;52883;51.094;5.880;2023-04-24T15:18:38;15.07;118.99
66102;HTU21D;52883;51.094;5.880;2023-04-24T15:21:04;15.16;118.99
66102;HTU21D;52883;51.094;5.880;2023-04-24T15:23:29;15.23;118.99
66102;HTU21D;52883;51.094;5.880;2023-04-24T15:25:55;15.18;118.99
66102;HTU21D;52883;51.094;5.880;2023-04-24T15:28:21;15.02;118.99